Time;durP1;ratioP1;P1;durP2;ratioP2;P2;SDS_P1;SDS_P2;PMS_P1;PMS_P2;Temp;Humidity;BMP_temperature;BMP_pressure;BME280_temperature;BME280_humidity;BME280_pressure;Samples;Min_cycle;Max_cycle;Signal;HPM_P1;HPM_P2
2022/09/15 00:00:59;;;;;;;5.82;2.25;;;;;;;18.30;89.00;97228.34;5110471;28;20039;-77
2022/09/15 00:03:25;;;;;;;3.33;2.05;;;;;;;18.40;86.15;97226.44;5110372;28;20032;-77
2022/09/15 00:05:53;;;;;;;4.93;1.75;;;;;;;18.52;85.66;97232.53;5110428;28;20027;-77
2022/09/15 00:08:18;;;;;;;4.25;2.10;;;;;;;18.53;86.24;97225.25;5093455;28;20031;-76
2022/09/15 00:10:53;;;;;;;4.40;2.22;;;;;;;18.57;87.45;97230.22;5110021;28;20100;-77
2022/09/15 00:13:21;;;;;;;5.15;1.92;;;;;;;18.52;86.50;97218.16;5093232;28;20486;-78
2022/09/15 00:15:47;;;;;;;4.00;1.75;;;;;;;18.55;86.85;97215.97;5092965;28;20115;-77
2022/09/15 00:18:13;;;;;;;3.47;2.00;;;;;;;18.47;87.61;97215.84;5110006;28;20545;-76
2022/09/15 00:20:43;;;;;;;6.40;2.05;;;;;;;18.44;87.78;97210.72;5109776;28;20028;-77
2022/09/15 00:23:09;;;;;;;3.97;2.08;;;;;;;18.38;88.51;97208.63;5110167;28;20030;-76
2022/09/15 00:25:40;;;;;;;5.65;1.88;;;;;;;18.40;87.31;97206.63;5110015;28;20034;-76
2022/09/15 00:28:06;;;;;;;2.67;1.77;;;;;;;18.35;87.19;97188.13;5093146;28;20487;-77
2022/09/15 00:30:32;;;;;;;3.10;1.90;;;;;;;18.38;87.65;97192.38;5110145;28;20031;-76
2022/09/15 00:32:57;;;;;;;2.80;1.75;;;;;;;18.41;86.65;97181.25;5093322;28;20032;-77
2022/09/15 00:35:23;;;;;;;4.75;2.10;;;;;;;18.43;87.51;97187.34;5110219;28;20039;-77
2022/09/15 00:37:48;;;;;;;3.38;1.70;;;;;;;18.48;86.25;97182.34;5110189;28;20035;-77
2022/09/15 00:40:14;;;;;;;6.10;1.70;;;;;;;18.39;86.49;97172.44;5110007;28;20498;-77
2022/09/15 00:42:40;;;;;;;5.22;1.80;;;;;;;18.36;87.77;97183.56;5113433;28;20024;-77
2022/09/15 00:45:06;;;;;;;4.45;2.08;;;;;;;18.35;88.66;97182.72;5097149;28;20506;-77
2022/09/15 00:47:37;;;;;;;4.03;2.40;;;;;;;18.23;89.14;97174.94;5114194;28;20477;-77
2022/09/15 00:50:13;;;;;;;5.00;2.33;;;;;;;18.25;88.12;97181.91;5114248;28;20093;-77
2022/09/15 00:52:55;;;;;;;3.10;2.03;;;;;;;18.23;89.24;97183.06;5096966;28;20516;-75
2022/09/15 00:55:32;;;;;;;4.70;1.90;;;;;;;18.19;89.19;97179.81;5114137;28;20122;-75
2022/09/15 00:58:05;;;;;;;3.63;1.95;;;;;;;18.25;89.72;97189.16;5113971;27;20028;-75
2022/09/15 01:00:31;;;;;;;3.25;1.80;;;;;;;18.41;85.81;97189.38;5096945;28;20059;-74
2022/09/15 01:02:58;;;;;;;4.13;1.90;;;;;;;18.54;86.03;97194.47;5131176;27;20032;-76
2022/09/15 01:05:41;;;;;;;5.75;1.80;;;;;;;18.50;85.88;97188.50;5113929;28;20027;-76
2022/09/15 01:08:12;;;;;;;1.98;1.67;;;;;;;18.38;85.81;97168.88;5110056;28;20517;-76
2022/09/15 01:10:40;;;;;;;8.68;2.33;;;;;;;18.39;86.51;97169.72;5113447;28;20031;-75
2022/09/15 01:13:07;;;;;;;6.85;2.08;;;;;;;18.39;85.74;97169.72;5113824;28;20031;-75
2022/09/15 01:16:13;;;;;;;5.22;2.00;;;;;;;18.37;86.42;97160.88;5113476;28;20031;-78
2022/09/15 01:18:46;;;;;;;5.20;1.92;;;;;;;18.29;87.37;97174.34;5096388;28;20039;-76
2022/09/15 01:21:16;;;;;;;12.07;2.20;;;;;;;18.28;87.21;97176.19;5113638;28;20158;-76
2022/09/15 01:23:54;;;;;;;4.38;1.70;;;;;;;18.30;85.92;97170.63;5130771;27;20039;-76
2022/09/15 01:26:32;;;;;;;4.30;2.08;;;;;;;18.26;87.22;97169.22;5110621;28;20030;-76
2022/09/15 01:29:18;;;;;;;9.38;1.85;;;;;;;18.27;86.30;97179.88;5114735;28;20077;-76
2022/09/15 01:34:51;;;;;;;2.47;1.77;;;;;;;18.40;85.22;97176.81;5109350;28;20549;-76
2022/09/15 01:37:21;;;;;;;3.28;1.90;;;;;;;18.45;84.39;97168.25;5109927;28;20031;-78
2022/09/15 01:39:49;;;;;;;1.92;1.63;;;;;;;18.40;84.71;97171.41;5113067;28;20078;-76
2022/09/15 01:42:15;;;;;;;9.55;2.03;;;;;;;18.40;83.87;97171.41;5109150;28;20097;-76
2022/09/15 01:44:44;;;;;;;4.95;1.80;;;;;;;18.33;84.55;97154.09;5095913;28;20027;-75
2022/09/15 01:47:12;;;;;;;7.20;1.95;;;;;;;18.29;84.68;97158.09;5112756;28;20580;-75
2022/09/15 01:50:02;;;;;;;9.23;2.10;;;;;;;18.39;84.43;97167.84;5113009;28;20461;-75
2022/09/15 01:52:28;;;;;;;2.80;1.65;;;;;;;18.42;83.61;97158.59;5109408;28;20107;-77
2022/09/15 01:54:57;;;;;;;5.35;1.92;;;;;;;18.47;83.13;97160.81;5095756;28;20027;-77
2022/09/15 01:57:22;;;;;;;4.65;1.67;;;;;;;18.56;81.56;97144.53;5113073;28;20035;-77
2022/09/15 01:59:49;;;;;;;2.38;1.50;;;;;;;18.59;81.93;97137.94;5112884;28;20023;-76
2022/09/15 02:02:23;;;;;;;1.67;1.30;;;;;;;18.61;81.01;97125.94;5112582;28;20130;-76
2022/09/15 02:04:53;;;;;;;3.28;1.42;;;;;;;18.67;81.45;97140.75;5104509;28;20055;-76
2022/09/15 02:07:22;;;;;;;3.63;1.50;;;;;;;18.82;80.01;97148.19;5108641;28;20024;-75
2022/09/15 02:09:57;;;;;;;4.53;1.50;;;;;;;18.95;78.64;97129.63;5129726;27;20106;-75
2022/09/15 02:12:32;;;;;;;3.70;1.70;;;;;;;19.14;77.64;97128.59;5129611;27;20418;-75
2022/09/15 02:15:06;;;;;;;2.20;1.55;;;;;;;19.12;77.84;97113.50;5113248;28;20042;-77
2022/09/15 02:17:34;;;;;;;1.67;1.33;;;;;;;19.01;78.41;97113.78;5096086;28;20027;-76
2022/09/15 02:20:07;;;;;;;2.97;1.55;;;;;;;18.93;78.98;97109.97;5112316;28;20040;-77
2022/09/15 02:22:36;;;;;;;14.70;4.32;;;;;;;18.87;79.57;97098.91;5113597;28;20046;-77
2022/09/15 02:25:06;;;;;;;5.65;1.88;;;;;;;18.76;80.39;97094.59;5112339;28;20065;-76
2022/09/15 02:27:36;;;;;;;3.30;1.73;;;;;;;18.73;80.86;97102.19;5112356;28;20034;-76
2022/09/15 02:30:06;;;;;;;4.93;1.88;;;;;;;18.64;81.25;97101.25;5112275;28;20422;-77
2022/09/15 02:32:33;;;;;;;3.67;1.67;;;;;;;18.64;80.74;97098.53;5112124;28;20019;-76
2022/09/15 02:35:03;;;;;;;3.67;1.73;;;;;;;18.63;80.04;97083.31;5112041;28;20032;-78
2022/09/15 02:37:29;;;;;;;3.83;2.17;;;;;;;18.67;81.05;97100.94;5112167;28;20449;-76
2022/09/15 02:39:59;;;;;;;35.22;13.18;;;;;;;18.56;81.45;97094.91;5090699;28;20522;-76
2022/09/15 02:42:29;;;;;;;36.00;9.90;;;;;;;18.45;82.69;97098.69;5095116;28;20024;-75
2022/09/15 02:44:55;;;;;;;16.10;7.63;;;;;;;18.35;83.52;97097.91;5111984;28;20024;-75
2022/09/15 02:47:20;;;;;;;7.25;2.88;;;;;;;18.32;82.73;97087.38;5111819;28;20032;-75
2022/09/15 02:49:46;;;;;;;3.47;2.30;;;;;;;18.40;81.85;97096.44;5111786;28;20416;-78
2022/09/15 02:52:12;;;;;;;4.50;1.50;;;;;;;18.51;80.50;97098.09;5111354;28;20035;-75
2022/09/15 02:54:37;;;;;;;4.13;1.67;;;;;;;18.59;80.33;97095.44;5094588;28;20077;-75
2022/09/15 02:57:03;;;;;;;3.22;1.88;;;;;;;18.58;79.95;97084.78;5111654;28;20024;-75
2022/09/15 03:00:12;;;;;;;3.55;1.73;;;;;;;18.63;79.82;97085.16;5090420;28;20034;-76
2022/09/15 03:02:16;;;;;;;4.72;1.92;;;;;;;18.71;78.63;97083.38;5111352;28;20038;-75
2022/09/15 03:04:42;;;;;;;7.60;2.13;;;;;;;18.71;78.17;97077.94;5112344;28;20026;-76
2022/09/15 03:07:08;;;;;;;5.38;1.67;;;;;;;18.74;78.34;97082.19;5111286;28;20027;-76
2022/09/15 03:09:33;;;;;;;2.67;1.52;;;;;;;18.76;78.57;97083.75;5111477;27;20023;-76
2022/09/15 03:11:59;;;;;;;4.65;2.20;;;;;;;18.65;80.40;97096.69;5111332;28;20024;-76
2022/09/15 03:14:25;;;;;;;7.43;2.35;;;;;;;18.54;80.25;97086.09;5111471;28;20027;-76
2022/09/15 03:16:51;;;;;;;6.95;2.70;;;;;;;18.42;81.41;97088.16;5111125;28;20034;-76
2022/09/15 03:19:16;;;;;;;5.88;2.35;;;;;;;18.43;81.28;97096.13;5111178;28;20027;-76
2022/09/15 03:21:42;;;;;;;4.13;1.70;;;;;;;18.32;82.70;97095.50;5110930;28;20407;-76
2022/09/15 03:24:07;;;;;;;12.93;2.45;;;;;;;18.38;82.33;97098.44;5111275;28;20463;-77
2022/09/15 03:26:33;;;;;;;6.53;1.58;;;;;;;18.43;80.14;97106.09;5094095;28;20019;-76
2022/09/15 03:28:59;;;;;;;5.68;3.33;;;;;;;18.41;81.96;97116.25;5111231;28;20032;-76
2022/09/15 03:31:24;;;;;;;2.80;1.45;;;;;;;18.45;79.81;97117.66;5094011;28;20020;-76
2022/09/15 03:33:53;;;;;;;3.42;2.10;;;;;;;18.35;82.21;97116.84;5110903;28;20059;-76
2022/09/15 03:36:19;;;;;;;5.18;2.15;;;;;;;18.35;80.54;97106.88;5111531;27;20164;-77
2022/09/15 03:38:44;;;;;;;5.53;2.00;;;;;;;18.38;80.12;97103.88;5110678;28;20130;-76
2022/09/15 03:41:11;;;;;;;5.40;1.67;;;;;;;18.46;79.87;97100.38;5110868;28;20581;-76
2022/09/15 03:43:37;;;;;;;7.85;2.50;;;;;;;18.50;79.52;97100.94;5110919;28;20073;-77
2022/09/15 03:46:05;;;;;;;7.53;2.38;;;;;;;18.40;79.89;97077.47;5110869;28;20101;-76
2022/09/15 03:48:33;;;;;;;3.78;2.65;;;;;;;18.57;78.06;97088.50;5111024;28;20039;-76
2022/09/15 03:50:59;;;;;;;9.73;5.40;;;;;;;18.61;77.39;97066.34;5110658;28;20490;-76
2022/09/15 03:53:25;;;;;;;3.70;1.55;;;;;;;18.79;75.97;97069.03;5110903;28;20029;-76
2022/09/15 03:55:50;;;;;;;4.88;1.80;;;;;;;18.76;77.09;97067.50;5110567;28;20106;-76
2022/09/15 03:58:17;;;;;;;5.30;2.50;;;;;;;18.76;78.26;97063.94;5093915;28;20031;-78
2022/09/15 04:00:44;;;;;;;9.95;4.90;;;;;;;18.72;76.99;97057.13;5110554;28;20028;-77
2022/09/15 04:03:10;;;;;;;10.10;3.10;;;;;;;18.82;75.59;97050.63;5110785;28;20475;-77
2022/09/15 04:05:39;;;;;;;5.15;1.95;;;;;;;18.83;75.67;97049.59;5128087;27;20031;-75
2022/09/15 04:08:05;;;;;;;3.60;2.03;;;;;;;18.77;76.23;97039.38;5093683;28;20494;-77
2022/09/15 04:10:30;;;;;;;10.63;3.67;;;;;;;18.62;77.50;97035.53;5110729;28;20124;-78
2022/09/15 04:12:56;;;;;;;6.18;2.00;;;;;;;18.81;75.69;97046.19;5110511;28;20118;-74
2022/09/15 04:15:22;;;;;;;6.03;3.25;;;;;;;18.83;75.95;97041.47;5109745;28;20088;-77
2022/09/15 04:17:48;;;;;;;6.07;1.90;;;;;;;18.90;75.05;97036.25;5110191;28;20026;-77
2022/09/15 04:20:14;;;;;;;5.00;1.73;;;;;;;18.92;74.62;97026.94;5110333;28;20102;-76
2022/09/15 04:22:42;;;;;;;5.78;2.10;;;;;;;19.00;75.10;97038.88;5110473;28;20114;-76
2022/09/15 04:25:08;;;;;;;12.13;2.22;;;;;;;19.05;75.09;97023.81;5093166;28;20515;-76
2022/09/15 04:27:35;;;;;;;6.10;3.08;;;;;;;19.01;75.64;97018.88;5109929;28;20058;-76
2022/09/15 04:30:05;;;;;;;13.00;3.05;;;;;;;19.09;74.76;96998.09;5109674;28;20467;-76
2022/09/15 04:32:31;;;;;;;12.60;2.83;;;;;;;19.16;75.11;97014.56;5110282;28;20039;-77
2022/09/15 04:34:56;;;;;;;12.85;3.88;;;;;;;19.26;74.95;97020.69;5109873;28;20034;-77
2022/09/15 04:37:22;;;;;;;29.73;8.13;;;;;;;19.13;75.95;97012.19;5093106;28;20475;-76
2022/09/15 04:39:48;;;;;;;7.20;2.95;;;;;;;19.23;74.37;97002.03;5109614;28;20047;-76
2022/09/15 04:42:13;;;;;;;23.17;4.10;;;;;;;19.33;76.24;97027.19;5109676;28;20513;-77
2022/09/15 04:44:42;;;;;;;17.83;4.25;;;;;;;19.29;76.73;97034.78;5093075;28;20023;-77
2022/09/15 04:47:07;;;;;;;24.40;4.43;;;;;;;19.33;77.60;97046.19;5093074;28;20043;-76
2022/09/15 04:49:36;;;;;;;39.75;6.68;;;;;;;19.35;77.97;97052.28;5110093;28;20024;-77
2022/09/15 04:52:02;;;;;;;20.15;5.38;;;;;;;19.23;77.07;97018.31;5111370;28;20026;-78
2022/09/15 04:54:29;;;;;;;20.27;4.75;;;;;;;19.48;76.95;97048.16;5114389;28;20059;-78
2022/09/15 04:56:55;;;;;;;19.90;5.72;;;;;;;19.60;78.06;97064.13;5112445;28;20028;-77
2022/09/15 04:59:20;;;;;;;23.45;5.97;;;;;;;19.72;77.90;97071.81;5109702;28;20034;-75
2022/09/15 05:01:46;;;;;;;11.95;3.92;;;;;;;19.89;77.69;97068.19;5093094;28;20107;-75
2022/09/15 05:04:12;;;;;;;16.42;5.30;;;;;;;19.96;76.89;97071.91;5109872;28;20115;-75
2022/09/15 05:06:38;;;;;;;35.33;4.75;;;;;;;20.04;76.79;97071.09;5092758;28;20027;-76
2022/09/15 05:09:05;;;;;;;20.13;3.50;;;;;;;20.34;74.64;97065.09;5109553;28;20108;-76
2022/09/15 05:11:31;;;;;;;21.88;6.00;;;;;;;20.50;75.50;97072.41;5126718;28;20475;-76
2022/09/15 05:13:57;;;;;;;19.42;4.60;;;;;;;20.57;75.20;97067.16;5109671;28;20031;-77
2022/09/15 05:16:27;;;;;;;12.60;3.75;;;;;;;20.67;75.31;97070.56;5109443;28;20473;-76
2022/09/15 05:18:55;;;;;;;21.88;3.70;;;;;;;20.99;74.82;97070.56;5109600;28;20058;-76
2022/09/15 05:21:22;;;;;;;23.10;3.00;;;;;;;21.36;70.32;97059.13;5092539;28;20036;-76
2022/09/15 05:23:47;;;;;;;18.13;2.70;;;;;;;21.58;69.52;97066.56;5092518;28;20024;-77
2022/09/15 05:26:16;;;;;;;20.30;4.53;;;;;;;21.75;71.06;97062.75;5109424;28;20122;-76
2022/09/15 05:28:41;;;;;;;38.15;8.55;;;;;;;22.01;70.34;97052.47;5096024;28;20028;-75
2022/09/15 05:31:09;;;;;;;21.23;5.85;;;;;;;22.20;70.48;97051.16;5113368;28;20030;-76
2022/09/15 05:33:35;;;;;;;31.25;7.35;;;;;;;23.28;67.74;97085.47;5113293;28;20027;-76
2022/09/15 05:36:01;;;;;;;20.52;5.10;;;;;;;24.30;62.77;97056.50;5113420;27;20118;-76
2022/09/15 05:38:30;;;;;;;21.55;6.15;;;;;;;24.97;61.06;97063.34;5095854;28;20140;-76
2022/09/15 05:41:07;;;;;;;20.05;6.80;;;;;;;26.34;56.14;97049.72;5113140;28;20030;-76
2022/09/15 05:43:34;;;;;;;20.10;8.25;;;;;;;27.57;53.08;97032.78;5130175;27;20080;-76
2022/09/15 05:46:00;;;;;;;12.35;4.65;;;;;;;28.47;50.41;97007.94;5113213;28;20035;-75
2022/09/15 05:48:26;;;;;;;17.70;6.32;;;;;;;28.98;49.22;96984.94;5112816;28;20028;-75
2022/09/15 05:50:52;;;;;;;12.40;4.68;;;;;;;29.59;46.85;96963.00;5112934;28;20084;-76
2022/09/15 05:53:22;;;;;;;14.70;3.78;;;;;;;30.02;45.69;96941.69;5112782;28;20037;-76
2022/09/15 05:55:47;;;;;;;9.43;3.65;;;;;;;30.76;44.49;96932.19;5095671;28;20358;-76
2022/09/15 05:58:13;;;;;;;12.85;4.97;;;;;;;31.79;42.39;96920.56;5095764;28;20116;-76
2022/09/15 06:00:40;;;;;;;12.68;4.78;;;;;;;31.88;42.23;96919.94;5112205;28;20020;-76
2022/09/15 06:03:07;;;;;;;22.23;5.55;;;;;;;31.69;42.65;96897.13;5112652;28;20049;-77
2022/09/15 06:05:32;;;;;;;14.60;4.53;;;;;;;32.35;40.41;96887.44;5112448;28;20027;-76
2022/09/15 06:07:58;;;;;;;4.32;2.45;;;;;;;32.71;39.77;96892.53;5095932;28;20035;-77
2022/09/15 06:10:24;;;;;;;10.95;3.92;;;;;;;32.91;39.73;96885.66;5112557;28;20027;-77
2022/09/15 06:12:53;;;;;;;9.60;4.80;;;;;;;33.30;39.83;96895.75;5095278;28;20107;-77
2022/09/15 06:15:19;;;;;;;12.75;3.92;;;;;;;33.26;38.53;96902.88;5095713;28;20030;-77
2022/09/15 06:17:45;;;;;;;6.60;3.25;;;;;;;34.49;34.83;96870.91;5112516;28;20471;-78
2022/09/15 06:20:11;;;;;;;11.93;4.90;;;;;;;35.65;34.34;96878.34;5112374;28;20055;-78
2022/09/15 06:22:36;;;;;;;14.52;5.25;;;;;;;36.99;31.94;96869.00;5111956;28;20016;-77
2022/09/15 06:25:02;;;;;;;25.73;7.72;;;;;;;36.85;33.07;96874.28;5130688;27;20030;-76
2022/09/15 06:27:28;;;;;;;29.60;8.63;;;;;;;37.95;31.35;96875.28;5095303;28;20051;-78
2022/09/15 06:29:53;;;;;;;23.25;8.45;;;;;;;38.01;30.06;96878.91;5112137;28;20122;-78
2022/09/15 06:32:19;;;;;;;35.42;8.63;;;;;;;37.70;30.82;96869.75;5112092;27;20020;-78
2022/09/15 06:34:45;;;;;;;39.13;9.00;;;;;;;38.42;30.31;96860.81;5110698;28;20103;-77
2022/09/15 06:37:10;;;;;;;15.25;6.05;;;;;;;38.10;28.50;96845.59;5112059;28;20028;-77
2022/09/15 06:39:36;;;;;;;13.13;4.30;;;;;;;38.45;28.73;96848.22;5110804;27;20043;-77
2022/09/15 06:42:02;;;;;;;11.07;2.80;;;;;;;39.04;26.60;96826.50;5111651;28;20447;-77
2022/09/15 06:44:27;;;;;;;7.47;3.00;;;;;;;39.06;26.81;96831.00;5111761;28;20104;-77
2022/09/15 06:46:53;;;;;;;5.38;1.77;;;;;;;38.44;26.77;96813.84;5111695;28;20031;-76
2022/09/15 06:49:20;;;;;;;34.55;7.07;;;;;;;38.13;28.50;96822.66;5111701;28;20051;-77
2022/09/15 06:51:46;;;;;;;18.85;3.75;;;;;;;36.99;29.27;96804.00;5111544;28;20088;-77
2022/09/15 06:54:13;;;;;;;4.45;1.90;;;;;;;38.07;27.04;96819.06;5111437;28;20456;-77
2022/09/15 06:56:39;;;;;;;16.30;5.50;;;;;;;38.55;28.98;96828.56;5111965;27;20034;-77
2022/09/15 06:59:04;;;;;;;16.38;6.72;;;;;;;38.27;28.93;96818.94;5111144;28;20031;-77
2022/09/15 07:01:31;;;;;;;10.75;3.40;;;;;;;37.55;28.28;96811.16;5110942;28;20035;-77
2022/09/15 07:03:58;;;;;;;4.10;2.10;;;;;;;36.57;28.62;96819.06;5111905;28;20035;-77
2022/09/15 07:06:26;;;;;;;9.85;2.00;;;;;;;36.34;29.54;96816.75;5110734;28;20110;-78
2022/09/15 07:08:52;;;;;;;2.50;1.77;;;;;;;35.98;29.67;96817.75;5077504;28;20487;-77
2022/09/15 07:11:18;;;;;;;9.00;2.10;;;;;;;36.00;30.35;96824.72;5094132;28;20034;-77
2022/09/15 07:13:44;;;;;;;3.05;1.75;;;;;;;36.48;29.56;96840.19;5110503;28;20073;-77
2022/09/15 07:16:12;;;;;;;9.15;2.10;;;;;;;36.27;29.46;96827.34;5110498;28;20061;-79
2022/09/15 07:18:38;;;;;;;7.65;2.45;;;;;;;35.67;30.78;96834.34;5110669;27;20027;-77
2022/09/15 07:21:09;;;;;;;3.83;1.73;;;;;;;35.93;30.26;96843.66;5110516;28;20062;-77
2022/09/15 07:23:35;;;;;;;6.13;1.98;;;;;;;36.99;28.03;96865.38;5110652;28;20035;-77
2022/09/15 07:26:34;;;;;;;8.52;1.85;;;;;;;36.66;28.12;96862.00;5110139;28;20404;-76
2022/09/15 07:29:01;;;;;;;3.15;1.77;;;;;;;38.18;26.97;96875.75;5107644;28;20039;-76
2022/09/15 07:31:29;;;;;;;26.25;5.55;;;;;;;37.30;28.01;96870.66;5110209;28;20020;-77
2022/09/15 07:33:56;;;;;;;8.05;3.30;;;;;;;38.45;27.96;96888.22;5110833;28;20024;-77
2022/09/15 07:36:21;;;;;;;9.40;3.58;;;;;;;38.18;27.96;96884.13;5096004;28;20027;-80
2022/09/15 07:38:48;;;;;;;10.02;3.17;;;;;;;37.85;28.86;96897.63;5116965;28;20044;-79
2022/09/15 07:41:18;;;;;;;22.58;6.10;;;;;;;38.14;29.15;96897.84;5114496;28;20024;-79
2022/09/15 07:43:46;;;;;;;11.60;3.30;;;;;;;39.04;26.83;96899.28;5098588;28;20025;-80
2022/09/15 07:46:11;;;;;;;7.85;3.10;;;;;;;38.43;27.62;96886.81;5107077;28;20521;-80
2022/09/15 07:48:37;;;;;;;8.70;4.00;;;;;;;39.19;27.74;96900.28;5110760;28;20051;-80
2022/09/15 07:51:02;;;;;;;11.65;3.38;;;;;;;39.04;26.69;96896.47;5111720;28;20020;-79
2022/09/15 07:53:29;;;;;;;9.07;4.25;;;;;;;39.03;27.32;96886.44;5111869;28;20024;-80
2022/09/15 07:55:55;;;;;;;11.18;3.88;;;;;;;39.02;26.80;96881.94;5110219;28;20027;-79
2022/09/15 07:58:21;;;;;;;9.25;3.17;;;;;;;38.78;26.45;96888.56;5110473;28;20038;-81
2022/09/15 08:00:47;;;;;;;12.73;3.70;;;;;;;40.17;26.65;96905.50;5110832;28;20543;-80
2022/09/15 08:03:14;;;;;;;11.80;4.05;;;;;;;39.31;27.11;96872.78;5110442;28;20088;-80
2022/09/15 08:05:39;;;;;;;5.07;2.70;;;;;;;39.94;26.14;96874.34;5112664;28;20110;-80
2022/09/15 08:08:05;;;;;;;5.93;2.42;;;;;;;39.00;26.36;96850.63;5111002;28;20571;-80
2022/09/15 08:10:31;;;;;;;6.68;2.53;;;;;;;39.03;25.92;96855.66;5113144;28;20023;-81
2022/09/15 08:13:00;;;;;;;4.60;2.17;;;;;;;40.05;24.83;96861.06;5096137;28;20480;-79
2022/09/15 08:15:26;;;;;;;4.88;2.22;;;;;;;39.65;26.34;96870.75;5110986;28;20115;-78
2022/09/15 08:17:52;;;;;;;8.43;1.90;;;;;;;40.93;24.51;96868.78;5110221;28;20027;-79
2022/09/15 08:20:18;;;;;;;3.80;1.90;;;;;;;41.86;23.11;96884.63;5110517;28;20091;-79
2022/09/15 08:22:45;;;;;;;3.80;2.53;;;;;;;42.24;23.15;96885.28;5110857;28;20020;-79
2022/09/15 08:25:11;;;;;;;4.30;2.08;;;;;;;42.92;22.89;96873.88;5110836;28;20019;-79
2022/09/15 08:27:37;;;;;;;5.53;2.20;;;;;;;43.08;21.78;96867.59;5111942;28;20032;-80
2022/09/15 08:30:06;;;;;;;5.38;1.95;;;;;;;42.98;21.53;96861.41;5111209;28;20399;-80
2022/09/15 08:32:32;;;;;;;4.75;2.42;;;;;;;43.10;21.73;96859.66;5111933;28;20028;-80
2022/09/15 08:34:58;;;;;;;3.70;1.80;;;;;;;43.03;21.65;96862.09;5110867;28;20498;-81
2022/09/15 08:37:23;;;;;;;5.03;2.67;;;;;;;41.93;22.86;96865.38;5111243;28;20033;-81
2022/09/15 08:39:49;;;;;;;3.10;1.65;;;;;;;42.22;22.21;96860.28;5128469;28;20048;-81
2022/09/15 08:42:18;;;;;;;7.40;1.58;;;;;;;42.59;21.56;96847.94;5111106;28;20504;-81
2022/09/15 08:44:58;;;;;;;5.63;1.85;;;;;;;42.07;21.72;96835.25;5112269;28;20031;-81
2022/09/15 08:47:27;;;;;;;5.80;2.22;;;;;;;41.96;21.82;96850.69;5110905;28;20024;-80
2022/09/15 08:50:06;;;;;;;4.03;1.77;;;;;;;42.41;21.72;96857.34;5110770;28;20031;-81
2022/09/15 08:52:50;;;;;;;2.95;1.70;;;;;;;43.27;21.04;96863.75;5112722;28;20398;-79
2022/09/15 08:55:45;;;;;;;5.35;2.88;;;;;;;43.19;21.18;96857.72;5111115;28;20032;-82
2022/09/15 08:58:17;;;;;;;4.10;2.25;;;;;;;42.96;20.94;96847.59;5113851;28;20022;-80
2022/09/15 09:00:45;;;;;;;6.55;3.25;;;;;;;43.48;20.64;96845.16;5109672;28;20035;-80
2022/09/15 09:03:19;;;;;;;5.18;1.77;;;;;;;44.20;18.61;96840.91;5112365;28;20030;-79
2022/09/15 09:05:59;;;;;;;5.80;1.85;;;;;;;43.88;18.77;96821.50;5115068;28;20552;-79
2022/09/15 09:08:39;;;;;;;7.70;1.67;;;;;;;43.72;19.28;96820.25;5113426;28;20414;-80
2022/09/15 09:11:45;;;;;;;4.97;1.60;;;;;;;43.05;19.71;96800.63;5130941;27;20031;-80
2022/09/15 09:14:46;;;;;;;6.60;1.88;;;;;;;43.52;18.95;96816.03;5043052;28;20032;-80
2022/09/15 09:17:17;;;;;;;4.07;1.80;;;;;;;41.93;20.32;96786.66;5099323;28;20074;-79
2022/09/15 09:19:54;;;;;;;3.03;1.70;;;;;;;43.55;19.34;96815.38;5099865;28;20028;-81
2022/09/15 09:22:23;;;;;;;6.15;2.30;;;;;;;42.51;20.49;96790.41;5101908;28;20060;-80
2022/09/15 09:24:54;;;;;;;5.05;1.70;;;;;;;42.08;19.95;96775.91;5128337;27;20055;-80
2022/09/15 09:27:24;;;;;;;8.55;2.15;;;;;;;42.99;19.61;96778.56;5096320;28;20031;-80
2022/09/15 09:30:14;;;;;;;3.42;1.90;;;;;;;43.24;19.72;96774.25;5131323;27;20031;-80
2022/09/15 09:33:02;;;;;;;9.45;1.88;;;;;;;44.91;18.00;96801.97;5096683;28;20026;-82
2022/09/15 09:35:34;;;;;;;5.13;2.10;;;;;;;44.78;18.49;96782.34;5130808;27;20142;-82
2022/09/15 09:38:01;;;;;;;5.90;1.88;;;;;;;45.34;17.93;96782.16;5115301;28;20579;-82
2022/09/15 09:40:29;;;;;;;5.40;1.70;;;;;;;45.40;18.00;96785.63;5097237;28;20036;-82
2022/09/15 09:42:55;;;;;;;3.58;1.52;;;;;;;44.46;18.08;96755.44;5113888;28;20081;-82
2022/09/15 09:45:21;;;;;;;2.92;1.83;;;;;;;44.27;18.37;96771.88;5113866;28;20035;-82
2022/09/15 09:47:47;;;;;;;6.72;1.90;;;;;;;44.38;18.50;96768.38;5114225;28;20030;-82
2022/09/15 09:50:37;;;;;;;4.32;1.50;;;;;;;44.64;17.70;96768.44;5114485;28;20023;-81
2022/09/15 09:53:21;;;;;;;4.93;1.60;;;;;;;44.97;17.66;96785.69;5114076;28;20038;-82
2022/09/15 09:55:47;;;;;;;4.90;1.80;;;;;;;43.31;19.02;96771.81;5108458;28;20084;-81
2022/09/15 09:58:17;;;;;;;4.22;1.30;;;;;;;43.81;18.38;96794.97;5114004;28;20027;-81
2022/09/15 10:00:43;;;;;;;10.90;2.42;;;;;;;43.81;18.51;96770.41;5113492;28;20028;-81
2022/09/15 10:03:19;;;;;;;5.28;1.80;;;;;;;43.41;18.35;96769.53;5113163;28;20047;-81
2022/09/15 10:06:19;;;;;;;4.97;1.80;;;;;;;44.40;18.05;96784.97;5131042;27;20483;-81
2022/09/15 10:09:07;;;;;;;5.65;2.08;;;;;;;44.77;18.08;96784.34;5109261;28;20059;-81
2022/09/15 10:11:42;;;;;;;5.15;1.80;;;;;;;44.43;18.10;96773.03;5114316;28;20023;-81
2022/09/15 10:14:16;;;;;;;7.38;2.25;;;;;;;44.04;18.01;96748.56;5114366;28;20028;-82
2022/09/15 10:16:42;;;;;;;10.57;1.98;;;;;;;45.26;17.49;96786.63;5098137;28;20041;-81
2022/09/15 10:19:12;;;;;;;13.25;2.30;;;;;;;46.53;16.64;96785.59;5130890;27;20028;-81
2022/09/15 10:21:38;;;;;;;11.60;2.93;;;;;;;45.73;17.85;96761.22;5096070;28;20063;-81
2022/09/15 10:24:24;;;;;;;29.50;3.97;;;;;;;45.64;17.31;96751.94;5113412;28;20038;-81
2022/09/15 10:26:49;;;;;;;9.55;1.67;;;;;;;47.45;16.12;96780.56;5113073;27;20031;-81
2022/09/15 10:29:20;;;;;;;10.68;2.42;;;;;;;46.96;16.06;96753.22;5113274;28;20034;-81
2022/09/15 10:31:49;;;;;;;6.80;2.40;;;;;;;45.71;16.96;96746.63;5129843;27;20441;-82
2022/09/15 10:34:26;;;;;;;10.73;1.73;;;;;;;46.19;16.15;96747.00;5113519;28;20562;-81
2022/09/15 10:37:21;;;;;;;10.45;1.90;;;;;;;45.89;16.73;96742.53;5112538;28;20503;-81
2022/09/15 10:39:51;;;;;;;12.40;2.50;;;;;;;45.65;16.76;96736.63;5129477;27;20142;-80
2022/09/15 10:42:23;;;;;;;10.23;2.33;;;;;;;44.22;17.18;96716.41;5129194;27;20498;-81
2022/09/15 10:44:59;;;;;;;12.05;2.22;;;;;;;45.44;16.87;96744.22;5129137;27;20038;-81
2022/09/15 10:47:55;;;;;;;6.43;1.80;;;;;;;45.18;17.12;96745.09;5112278;28;20023;-81
2022/09/15 10:50:33;;;;;;;4.90;2.10;;;;;;;44.98;17.29;96736.53;5129527;27;20024;-81
2022/09/15 10:53:11;;;;;;;10.57;2.03;;;;;;;45.43;17.57;96739.72;5112004;28;20115;-81
2022/09/15 10:55:53;;;;;;;7.68;2.15;;;;;;;45.19;17.49;96738.25;5112870;28;20030;-81
2022/09/15 10:58:47;;;;;;;24.13;3.45;;;;;;;45.52;17.00;96743.34;5111618;28;20108;-80
2022/09/15 11:01:28;;;;;;;13.45;2.17;;;;;;;45.19;17.15;96729.78;5111244;28;20407;-81
2022/09/15 11:04:12;;;;;;;20.33;3.05;;;;;;;44.16;17.74;96710.13;5106964;28;20132;-81
2022/09/15 11:06:38;;;;;;;6.78;2.03;;;;;;;43.21;18.63;96722.19;5109127;28;20055;-81
2022/09/15 11:09:15;;;;;;;10.73;2.83;;;;;;;42.53;19.10;96706.50;5113001;28;20062;-81
2022/09/15 11:12:00;;;;;;;6.32;1.90;;;;;;;42.37;19.21;96698.75;5128309;27;20228;-83
2022/09/15 11:14:25;;;;;;;7.40;2.03;;;;;;;41.67;20.17;96695.56;5111662;28;20563;-81
2022/09/15 11:17:12;;;;;;;7.57;2.03;;;;;;;40.94;20.90;96700.13;5127999;27;20115;-80
2022/09/15 11:19:54;;;;;;;6.90;2.00;;;;;;;39.48;21.32;96691.13;5112091;28;20455;-80
2022/09/15 11:22:30;;;;;;;;;;;;;;;38.51;22.27;96679.28;5128455;27;20034;-80
2022/09/15 11:25:10;;;;;;;8.25;2.20;;;;;;;38.11;23.14;96686.03;5093482;28;19915;-80
2022/09/15 11:27:43;;;;;;;15.18;2.58;;;;;;;37.65;24.11;96699.44;5128334;27;20032;-81
2022/09/15 11:30:23;;;;;;;27.50;2.30;;;;;;;37.47;24.16;96702.88;5110984;28;20028;-81
2022/09/15 11:33:12;;;;;;;10.70;2.85;;;;;;;37.26;24.63;96695.66;5093773;28;20023;-81
2022/09/15 11:36:00;;;;;;;4.43;1.80;;;;;;;37.14;25.17;96695.16;5125232;27;20035;-80
2022/09/15 11:38:36;;;;;;;8.00;2.55;;;;;;;37.19;25.18;96707.16;5110755;28;20078;-81
2022/09/15 11:41:18;;;;;;;8.07;2.35;;;;;;;37.14;25.42;96703.53;5110811;28;20143;-80
2022/09/15 11:44:11;;;;;;;7.57;1.98;;;;;;;37.14;24.98;96709.09;5110762;28;20553;-81
2022/09/15 11:46:57;;;;;;;6.75;1.80;;;;;;;37.68;25.10;96712.81;5128226;27;20129;-81
2022/09/15 11:49:30;;;;;;;19.85;4.07;;;;;;;38.30;24.74;96720.53;5110708;28;20023;-81